KTMA

Henry Tift Myers Airport

Tifton, Georgia, USA
METAR KTMA 170035Z AUTO 28006KT 10SM OVC026 11/08 A3014 RMK AO2 T01120077
Observed Flight Rules
Dec-17 @ 00:35 UTC (23 minutes ago) Marginal Visual Flight Rules
Wind Visibility Clouds
280° at 6 knots 10 miles
  • Overcast at 2,600' AGL
Temperatures Readings
Current 11°C / 52°F
Dewpoint 8°C / 46°F
Humidity 82%
Altimeter 30.14" Hg
Pressure 1021 hPa
Elevation 109
METAR KTMA 170035Z AUTO 28006KT 10SM OVC026 11/08 A3014 RMK AO2 T01120077
Observed Flight Rules
Dec-17 @ 00:35 UTC
(23 minutes ago)
MVFR
Wind Visibility
280° at 6 knots 10 miles
Clouds
  • Overcast at 2,600' AGL
Temperature Dewpoint
11°C / 52°F 8°C / 46°F
Humidity Altimeter Pressure
82% 30.14" Hg 1021 hPa